Flight Track Log - Related Links

Times and Time Zones

All times are in EDT time to prevent confusion due to time zone crossing. See the N560TA flight status page for this flight to view local times or setup timezone preferences in your user account.

Time Position Orientation Groundspeed Altitude Reporting Facility
EDT Latitude Longitude Course Direction KTS MPH feet Rate Location/Type
Sun 10:31:15 AM 26.6689 -81.8056 344° North 198 228 5,800  Level Miami Center
Sun 10:32:15 AM 26.7319 -81.7964 North 209 241 8,400 2,350 Climbing Miami Center
Sun 10:33:15 AM 26.7992 -81.7853 North 223 257 10,500 2,150 Climbing Miami Center
Sun 10:34:15 AM 26.8747 -81.7700 10° North 252 290 12,700 2,100 Climbing Miami Center
Sun 10:35:00 AM 27.1994 -81.7940 329° Northwest  Level FlightAware Approximate
Sun 10:35:15 AM 26.9564 -81.7594 North 275 316 14,700  Level Miami Center
Sun 10:36:00 AM 27.2981 -81.8383 344° North  Level FlightAware Approximate
Sun 10:36:15 AM 27.0425 -81.7514 North 295 339 17,000  Level Miami Center
Sun 10:37:15 AM 27.1333 -81.7808 344° North 300 345 19,100 2,000 Climbing Miami Center
Sun 10:38:15 AM 27.2219 -81.8128 342° North 315 362 21,000 1,850 Climbing Miami Center
Sun 10:39:15 AM 27.3106 -81.8444 342° North 327 376 22,800 1,700 Climbing Miami Center
Sun 10:40:15 AM 27.3931 -81.8739 342° North 332 382 24,400 1,450 Climbing Miami Center
Sun 10:41:15 AM 27.4881 -81.9036 344° North 345 397 25,700 1,450 Climbing Miami Center
Sun 10:42:15 AM 27.5931 -81.8825 10° North 340 391 27,300 1,550 Climbing Miami Center
Sun 10:43:15 AM 27.6825 -81.8325 26° Northeast 347 399 28,800 1,600 Climbing Miami Center
Sun 10:44:15 AM 27.7697 -81.7825 27° Northeast 347 399 30,500 1,700 Climbing Miami Center
Sun 10:45:15 AM 27.8506 -81.7342 28° Northeast 340 391 32,200 1,400 Climbing Miami Center
Sun 10:46:15 AM 27.9356 -81.6886 25° Northeast 328 377 33,300 1,200 Climbing Miami Center
Sun 10:47:15 AM 28.0186 -81.6381 28° Northeast 333 383 34,600 1,150 Climbing Miami Center
Sun 10:48:15 AM 28.1092 -81.6183 11° North 328 377 35,600 1,050 Climbing Miami Center
Sun 10:49:15 AM 28.1989 -81.6150 North 316 364 36,700 1,050 Climbing Miami Center
Sun 10:50:15 AM 28.2908 -81.6119 North 316 364 37,700 1,000 Climbing Miami Center
Sun 10:51:15 AM 28.3806 -81.6086 North 316 364 38,700 800 Climbing Miami Center
Sun 10:52:15 AM 28.4706 -81.6031 North 316 364 39,300 677 Climbing Miami Center
Sun 10:53:28 AM 28.5817 -81.5994 North 323 372 40,200 677 Climbing Jacksonville Center
Sun 10:54:28 AM 28.6733 -81.5958 North 329 379 40,800 400 Climbing Jacksonville Center
Sun 10:55:28 AM 28.7672 -81.5900 North 329 379 41,000 100 Climbing Jacksonville Center
Sun 10:56:28 AM 28.8633 -81.5839 North 329 379 41,000  Level Jacksonville Center
Sun 10:57:28 AM 28.9656 -81.5803 North 339 390 41,000  Level Jacksonville Center
Sun 10:58:28 AM 29.0678 -81.5764 North 357 411 41,000  Level Jacksonville Center
Sun 10:59:28 AM 29.1761 -81.5678 North 370 426 41,000  Level Jacksonville Center
Sun 11:00:28 AM 29.2806 -81.5642 North 375 432 41,000  Level Jacksonville Center
Sun 11:01:28 AM 29.3869 -81.5603 North 375 432 41,000  Level Jacksonville Center
Sun 11:02:28 AM 29.4933 -81.5542 North 375 432 41,000  Level Jacksonville Center
Sun 11:03:28 AM 29.6017 -81.5478 North 381 438 41,000  Level Jacksonville Center
Sun 11:04:28 AM 29.7103 -81.5439 North 381 438 41,000  Level Jacksonville Center
Sun 11:05:28 AM 29.8189 -81.5375 North 381 438 41,000  Level Jacksonville Center
Sun 11:06:28 AM 29.9253 -81.5314 North 381 438 41,000  Level Jacksonville Center
Sun 11:07:28 AM 30.0358 -81.5178 North 386 444 41,000  Level Jacksonville Center
Sun 11:08:28 AM 30.1375 -81.4636 25° Northeast 386 444 41,000  Level Jacksonville Center
Sun 11:09:28 AM 30.2308 -81.4139 25° Northeast 395 455 41,000  Level Jacksonville Center
Sun 11:10:28 AM 30.3325 -81.3644 23° Northeast 400 460 41,000  Level Jacksonville Center
Sun 11:11:28 AM 30.4364 -81.3122 23° Northeast 400 460 41,000 150 Level Jacksonville Center
Sun 11:12:28 AM 30.5400 -81.2597 24° Northeast 400 460 41,300 400 Climbing Jacksonville Center
Sun 11:13:28 AM 30.6375 -81.2097 24° Northeast 395 455 41,800 500 Climbing Jacksonville Center
Sun 11:14:28 AM 30.7350 -81.1622 23° Northeast 390 449 42,300 550 Climbing Jacksonville Center
Sun 11:15:28 AM 30.8344 -81.1119 23° Northeast 385 443 42,900 350 Climbing Jacksonville Center
Sun 11:16:28 AM 30.9278 -81.0642 24° Northeast 375 432 43,000 50 Climbing Jacksonville Center
Sun 11:17:28 AM 31.0250 -81.0114 25° Northeast 375 432 43,000  Level Jacksonville Center
Sun 11:18:28 AM 31.1247 -80.9656 21° North 375 432 43,000  Level Jacksonville Center
Sun 11:19:28 AM 31.2242 -80.9150 23° Northeast 375 432 43,000  Level Jacksonville Center
Sun 11:20:28 AM 31.3236 -80.8644 23° Northeast 375 432 43,000  Level Jacksonville Center
Sun 11:21:28 AM 31.4333 -80.8036 25° Northeast 387 445 43,000  Level Jacksonville Center
Sun 11:22:28 AM 31.5283 -80.7550 24° Northeast 394 453 43,000  Level Jacksonville Center
Sun 11:23:28 AM 31.6300 -80.7039 23° Northeast 394 453 43,000  Level Jacksonville Center
Sun 11:24:28 AM 31.7417 -80.6450 24° Northeast 394 453 43,000  Level Jacksonville Center
Sun 11:25:28 AM 31.8450 -80.5911 24° Northeast 394 453 43,000  Level Jacksonville Center
Sun 11:26:28 AM 31.9506 -80.5372 23° Northeast 400 460 43,000  Level Jacksonville Center
Sun 11:27:28 AM 32.0519 -80.4856 23° Northeast 400 460 43,000  Level Jacksonville Center
Sun 11:28:28 AM 32.1428 -80.4367 24° Northeast 395 455 43,000  Level Jacksonville Center
Sun 11:29:28 AM 32.2461 -80.3822 24° Northeast 395 455 43,000  Level Jacksonville Center
Sun 11:30:28 AM 32.3514 -80.3253 25° Northeast 400 460 43,000  Level Jacksonville Center
Sun 11:31:28 AM 32.4525 -80.2706 25° Northeast 400 460 43,000  Level Jacksonville Center
Sun 11:32:28 AM 32.5578 -80.2183 23° Northeast 400 460 43,000  Level Jacksonville Center
Sun 11:33:28 AM 32.6611 -80.1636 24° Northeast 400 460 43,000  Level Jacksonville Center
Sun 11:34:28 AM 32.7622 -80.1061 26° Northeast 400 460 43,000  Level Jacksonville Center
Sun 11:35:28 AM 32.8672 -80.0483 25° Northeast 400 460 43,000  Level Jacksonville Center
Sun 11:36:28 AM 32.9636 -79.9686 35° Northeast 400 460 43,000  Level Jacksonville Center
Sun 11:37:28 AM 33.0636 -79.8711 39° Northeast 420 483 43,000  Level Jacksonville Center
Sun 11:38:28 AM 33.1553 -79.7836 39° Northeast 425 489 43,000  Level Jacksonville Center
Sun 11:39:28 AM 33.2472 -79.6986 38° Northeast 420 483 43,000  Level Jacksonville Center
Sun 11:40:28 AM 33.3408 -79.6056 40° Northeast 420 483 43,000  Level Jacksonville Center
Sun 11:41:28 AM 33.4322 -79.5153 39° Northeast 420 483 43,000  Level Jacksonville Center
Sun 11:42:28 AM 33.5217 -79.4272 39° Northeast 420 483 43,000  Level Jacksonville Center
Sun 11:43:28 AM 33.6111 -79.3364 40° Northeast 415 478 43,000  Level Jacksonville Center
Sun 11:44:28 AM 33.7044 -79.2503 37° Northeast 415 478 43,000  Level Jacksonville Center
Sun 11:46:14 AM 33.8556 -79.1000 40° Northeast 418 481 43,000  Level Washington Center
Sun 11:47:14 AM 33.9458 -79.0086 40° Northeast 418 481 43,000  Level Washington Center
Sun 11:48:11 AM 34.0381 -78.9197 39° Northeast 418 481 43,000  Level Washington Center
Sun 11:49:13 AM 34.1281 -78.8281 40° Northeast 412 474 43,000  Level Washington Center
Sun 11:50:15 AM 34.2072 -78.7508 39° Northeast 412 474 43,000  Level Washington Center
Sun 11:51:12 AM 34.2994 -78.6614 39° Northeast 412 474 43,000  Level Washington Center
Sun 11:52:13 AM 34.3894 -78.5692 40° Northeast 412 474 43,000  Level Washington Center
Sun 11:53:13 AM 34.4792 -78.4817 39° Northeast 412 474 43,000  Level Washington Center
Sun 11:54:14 AM 34.5583 -78.3936 42° Northeast 417 480 43,000  Level Washington Center
Sun 11:55:14 AM 34.6544 -78.3036 38° Northeast 412 474 43,000  Level Washington Center
Sun 11:56:12 AM 34.7439 -78.2131 40° Northeast 412 474 43,000  Level Washington Center
Sun 11:57:13 AM 34.8339 -78.1097 43° Northeast 412 474 43,000  Level Washington Center
Sun 11:58:13 AM 34.9211 -78.0214 40° Northeast 407 468 43,000  Level Washington Center
Sun 11:59:14 AM 35.0022 -77.9375 40° Northeast 414 476 43,000  Level Washington Center
Sun 12:00:12 PM 35.0917 -77.8486 39° Northeast 409 471 43,000  Level Washington Center
Sun 12:01:12 PM 35.1786 -77.7597 40° Northeast 409 471 43,000  Level Washington Center
Sun 12:02:14 PM 35.2658 -77.6678 41° Northeast 415 478 43,000  Level Washington Center
Sun 12:03:11 PM 35.3531 -77.5758 41° Northeast 410 472 43,000  Level Washington Center
Sun 12:04:13 PM 35.4461 -77.4942 36° Northeast 410 472 43,000  Level Washington Center
Sun 12:05:13 PM 35.5392 -77.4119 36° Northeast 410 472 43,000  Level Washington Center
Sun 12:06:12 PM 35.6322 -77.3325 35° Northeast 405 466 43,000  Level Washington Center
Sun 12:07:14 PM 35.7253 -77.2475 37° Northeast 410 472 43,000  Level Washington Center
Sun 12:08:14 PM 35.8181 -77.1675 35° Northeast 410 472 43,000  Level Washington Center
Sun 12:09:12 PM 35.9069 -77.0844 37° Northeast 404 465 43,000  Level Washington Center
Sun 12:10:13 PM 36.0039 -77.0042 34° Northeast 410 472 43,000  Level Washington Center
Sun 12:11:15 PM 36.0967 -76.9183 37° Northeast 410 472 43,000  Level Washington Center
Sun 12:12:12 PM 36.1914 -76.8325 36° Northeast 410 472 43,000  Level Washington Center
Sun 12:13:13 PM 36.2861 -76.7517 35° Northeast 410 472 43,000  Level Washington Center
Sun 12:14:13 PM 36.3808 -76.6653 36° Northeast 410 472 43,000  Level Washington Center
Sun 12:15:11 PM 36.4775 -76.5786 36° Northeast 410 472 43,000  Level Washington Center
Sun 12:16:12 PM 36.5719 -76.4944 36° Northeast 415 478 43,000  Level Washington Center
Sun 12:17:12 PM 36.6686 -76.4075 36° Northeast 415 478 43,000  Level Washington Center
Sun 12:18:13 PM 36.7608 -76.3178 38° Northeast 415 478 43,000  Level Washington Center
Sun 12:19:14 PM 36.8594 -76.2306 35° Northeast 420 483 43,000  Level Washington Center
Sun 12:20:12 PM 36.9619 -76.1611 28° Northeast 420 483 43,000  Level Washington Center
Sun 12:21:13 PM 37.0875 -76.1022 21° North 415 478 43,000  Level Washington Center
Sun 12:22:13 PM 37.1942 -76.0456 23° Northeast 410 472 43,000  Level Washington Center
Sun 12:23:13 PM 37.3008 -75.9886 23° Northeast 410 472 43,000  Level Washington Center
Sun 12:24:11 PM 37.4072 -75.9317 23° Northeast 410 472 43,000  Level Washington Center
Sun 12:25:12 PM 37.5139 -75.8747 23° Northeast 410 472 43,000  Level Washington Center
Sun 12:26:13 PM 37.6181 -75.8042 28° Northeast 415 478 43,000  Level Washington Center
Sun 12:27:14 PM 37.7164 -75.7258 32° Northeast 415 478 43,000  Level Washington Center
Sun 12:28:12 PM 37.8144 -75.6522 31° Northeast 415 478 43,000  Level Washington Center
Sun 12:29:12 PM 37.9167 -75.5761 30° Northeast 415 478 43,000  Level Washington Center
Sun 12:30:14 PM 38.0189 -75.4994 31° Northeast 420 483 43,000  Level Washington Center
Sun 12:31:12 PM 38.1147 -75.4122 36° Northeast 425 489 43,000  Level Washington Center
Sun 12:32:12 PM 38.2083 -75.3194 38° Northeast 425 489 43,000  Level Washington Center
Sun 12:33:13 PM 38.2975 -75.2133 43° Northeast 430 495 43,000  Level Washington Center
Sun 12:34:14 PM 38.3808 -75.1308 38° Northeast 430 495 43,000  Level Washington Center
Sun 12:35:12 PM 38.4719 -75.0294 41° Northeast 430 495 43,000  Level Washington Center
Sun 12:36:12 PM 38.5653 -74.9358 38° Northeast 425 489 43,000  Level Washington Center
Sun 12:37:13 PM 38.6586 -74.8367 40° Northeast 425 489 43,000  Level Washington Center
Sun 12:38:13 PM 38.7497 -74.7344 41° Northeast 425 489 43,000  Level Washington Center
Sun 12:39:14 PM 38.8406 -74.6375 40° Northeast 425 489 43,000  Level Washington Center
Sun 12:40:12 PM 38.9314 -74.5403 40° Northeast 425 489 43,000  Level Washington Center
Sun 12:41:12 PM 39.0222 -74.4453 39° Northeast 425 489 43,000  Level Washington Center
Sun 12:42:14 PM 39.1131 -74.3450 41° Northeast 425 489 43,000  Level Washington Center
Sun 12:43:14 PM 39.2036 -74.2444 41° Northeast 425 489 43,000 -289 Level Washington Center
Sun 12:45:00 PM 39.3672 -74.0658 40° Northeast 426 490 42,200 -470 Descending Boston Center
Sun 12:46:00 PM 39.4625 -73.9633 40° Northeast 431 496 41,700 -409 Descending Boston Center
Sun 12:47:12 PM 39.5553 -73.8606 40° Northeast 437 503 41,300 -318 Descending Boston Center
Sun 12:48:12 PM 39.6653 -73.7336 42° Northeast 437 503 41,000 -150 Descending Boston Center
Sun 12:49:12 PM 39.7581 -73.6356 39° Northeast 437 503 41,000  Level Boston Center
Sun 12:50:12 PM 39.8486 -73.5344 41° Northeast 431 496 41,000  Level Boston Center
Sun 12:51:12 PM 39.9517 -73.4225 40° Northeast 431 496 41,000 -100 Level Boston Center
Sun 12:52:12 PM 40.0442 -73.3317 37° Northeast 431 496 40,800 -450 Descending Boston Center
Sun 12:53:12 PM 40.1428 -73.2461 34° Northeast 425 489 40,100 -600 Descending Boston Center
Sun 12:54:12 PM 40.2286 -73.1686 35° Northeast 419 482 39,600 -636 Descending Boston Center
Sun 12:55:24 PM 40.3189 -73.0878 34° Northeast 406 467 38,700 -1,091 Descending Boston Center
Sun 12:56:24 PM 40.4275 -72.9989 32° Northeast 389 448 37,200 -1,450 Descending Boston Center
Sun 12:57:24 PM 40.5175 -72.9178 34° Northeast 389 448 35,800 -1,450 Descending Boston Center
Sun 12:58:24 PM 40.6075 -72.8364 34° Northeast 389 448 34,300 -1,500 Descending Boston Center
Sun 12:59:24 PM 40.7014 -72.7603 32° Northeast 394 453 32,800 -1,550 Descending Boston Center
Sun 01:00:24 PM 40.8039 -72.6731 33° Northeast 394 453 31,200 -900 Descending Boston Center
Sun 01:01:24 PM 40.8936 -72.5939 34° Northeast 394 453 31,000 -100 Descending Boston Center
Sun 01:02:24 PM 40.9769 -72.5197 34° Northeast 399 459 31,000  Level Boston Center
Sun 01:03:24 PM 41.0708 -72.4347 34° Northeast 399 459 31,000  Level Boston Center
Sun 01:04:24 PM 41.1644 -72.3519 34° Northeast 399 459 31,000  Level Boston Center
Sun 01:05:24 PM 41.2603 -72.2689 33° Northeast 399 459 31,000 -150 Level Boston Center
Sun 01:06:24 PM 41.3539 -72.1828 35° Northeast 399 459 30,700 -650 Descending Boston Center
Sun 01:07:24 PM 41.4494 -72.0939 35° Northeast 399 459 29,700 -1,150 Descending Boston Center
Sun 01:08:24 PM 41.5450 -72.0103 33° Northeast 404 465 28,400 -1,300 Descending Boston Center
Sun 01:09:24 PM 41.6322 -71.9069 42° Northeast 410 472 27,100 -1,300 Descending Boston Center
Sun 01:10:24 PM 41.7172 -71.8006 43° Northeast 410 472 25,800 -1,350 Descending Boston Center
Sun 01:11:24 PM 41.7978 -71.7022 42° Northeast 403 464 24,400 -1,450 Descending Boston Center
Sun 01:12:24 PM 41.8764 -71.6008 44° Northeast 392 451 22,900 -1,550 Descending Boston Center
Sun 01:13:24 PM 41.9567 -71.4797 48° Northeast 392 451 21,300 -1,400 Descending Boston Center
Sun 01:14:24 PM 42.0142 -71.3839 51° Northeast 385 443 20,100 -1,200 Descending Boston Center
Sun 01:15:24 PM 42.0739 -71.3100 43° Northeast 372 428 18,900 -1,182 Descending Boston Center
Sun 01:16:36 PM 42.1728 -71.1992 40° Northeast 359 413 17,500 -1,409 Descending Boston Center
Sun 01:17:36 PM 42.2633 -71.0964 40° Northeast 349 402 15,800 -1,200 Descending Boston Center
Sun 01:18:36 PM 42.3289 -71.0192 41° Northeast 349 402 15,100 -350 Descending Boston Center
Sun 01:19:36 PM 42.4069 -70.9272 41° Northeast 344 396 15,100  Level Boston Center
Sun 01:20:36 PM 42.4683 -70.8497 43° Northeast 338 389 15,100 -150 Level Boston Center
Sun 01:21:36 PM 42.5361 -70.7719 40° Northeast 326 375 14,800 -1,000 Descending Boston Center
Sun 01:22:36 PM 42.6364 -70.7778 358° North 303 349 13,100 -1,600 Descending Boston Center
Sun 01:23:36 PM 42.7219 -70.7867 356° North 307 353 11,600 -1,550 Descending Boston Center
Sun 01:24:36 PM 42.8075 -70.7986 354° North 307 353 10,000 -1,650 Descending Boston Center
Sun 01:25:36 PM 42.8825 -70.8050 356° North 285 328 8,300 -1,850 Descending Boston Center
Sun 01:26:36 PM 42.9578 -70.8144 355° North 273 314 6,300 -1,950 Descending Boston Center
Sun 01:27:36 PM 43.0269 -70.8383 346° North 267 307 4,400 -2,200 Descending Boston Center
Sun 01:28:36 PM 43.0775 -70.8825 327° Northwest 227 261 1,900 -1,700 Descending Boston Center
Sun 01:29:36 PM 43.1106 -70.8644 22° Northeast 146 168 1,000 4,550 Descending Boston Center
Sun 01:30:36 PM 43.0936 -70.8364 130° Southeast 53 61 11,000 5,000 Climbing Boston Center
Sun 01:31:36 PM 43.1142 -70.8244 23° Northeast 53 61 11,000  Level Boston Center
Sun 01:32:36 PM 43.1244 -70.8100 46° Northeast 53 61 11,000  Level Boston Center
Sun 01:33:36 PM 43.1347 -70.7956 46° Northeast 53 61 11,000  Level Boston Center
Sun 01:34:36 PM 43.1450 -70.7811 46° Northeast 53 61 11,000  Level Boston Center
Sun 01:35:36 PM 43.1450 -70.7811 270° West 53 61 11,000  Level Boston Center
Sun 01:37:00 PM 43.0779 -70.8233 209° Southwest  Level Estimated
Sun 01:44:00 PM 43.0779 -70.8233 209° Southwest  Level Estimated

Login

Don't have an account? Register now (free) for customized features, flight alerts, and more!